Logan Cache Airport
KLGU : now visible

Airfield :











YOU CAN JOIN US ON...

 
LOGIN :

Register | Disclaimer

   EN    FR    IT 

 









Legend :    VFR   Marginal VFR   IFR   Intensive IFR   Very Intensive IFR
Visi :
Ceiling :
>= 8 km
>= 3000ft
5 to 8 km
1000 to 3000 ft
1500m to 5 km
500 to 1000 ft
800 to 1500m
200 to 500 ft
< 800m
< 200 ft
Symbols :   Thunderstorms  Fog  Heavy snow  Heavy precipitations  Wind > 20 kt






- Airport Elevation : 4457 ft


KLGU - Logan Cache

CURRENT METAR :
  • 211351Z AUTO 00000KT 10SM CLR 04/M01 A3021 RMK AO2 SLP211 T00441006

EXPIRED METARs :
  • 211251Z AUTO 00000KT 10SM CLR 03/M01 A3020 RMK AO2 SLP207 T00331006
  • 211151Z AUTO 00000KT 10SM CLR 03/M01 A3020 RMK AO2 SLP207 T00281011 10100 20028 53001
  • 211051Z AUTO 00000KT 10SM CLR 04/M01 A3019 RMK AO2 SLP203 T00391011
  • 210951Z AUTO 00000KT 10SM CLR 05/M01 A3018 RMK AO2 SLP199 T00501006
  • 210851Z AUTO 00000KT 10SM CLR 06/M01 A3019 RMK AO2 SLP204 T00561006 50003

TAF KLGU
Valid from the 21 at 12:00 until the 22 at 12:00 UTC


211120Z 2112/2212 VRB03KT P6SM SKC
FM211900 21008KT P6SM SCT200
FM220300 32005KT P6SM SCT120 BKN200
FM220800 VRB05KT P6SM SCT120
KZLC FIR / North America



MET'MAP, your aeronautical weather chart ! - Copyright ORBIFLY December 2007 - Disclaimer

ORBIFLY MET'MAP TEAM :

Programming & Development : Alexandra Zaïnal
Original concept : Baudouin d'Aumeries
Technical & hardware support : Manuel Goepfert
Assistance : Marc-Olivier Méhu




SOURCES & CREDITS :

   NOAA       Earth
Advisory